sensor_id;sensor_type;location;lat;lon;timestamp;temperature;humidity
24402;DHT22;12539;48.808;11.292;2022-08-19T00:00:17;21.70;92.90
24402;DHT22;12539;48.808;11.292;2022-08-19T00:02:44;21.60;93.40
24402;DHT22;12539;48.808;11.292;2022-08-19T00:05:12;21.50;93.80
24402;DHT22;12539;48.808;11.292;2022-08-19T00:07:38;21.40;94.20
24402;DHT22;12539;48.808;11.292;2022-08-19T00:10:06;21.30;94.50
24402;DHT22;12539;48.808;11.292;2022-08-19T00:12:32;21.30;94.70
24402;DHT22;12539;48.808;11.292;2022-08-19T00:14:58;21.30;95.00
24402;DHT22;12539;48.808;11.292;2022-08-19T00:17:23;21.20;95.10
24402;DHT22;12539;48.808;11.292;2022-08-19T00:19:49;21.30;95.30
24402;DHT22;12539;48.808;11.292;2022-08-19T00:22:15;21.30;95.40
24402;DHT22;12539;48.808;11.292;2022-08-19T00:24:42;21.20;95.50
24402;DHT22;12539;48.808;11.292;2022-08-19T00:27:09;21.30;95.60
24402;DHT22;12539;48.808;11.292;2022-08-19T00:29:34;21.30;95.60
24402;DHT22;12539;48.808;11.292;2022-08-19T00:32:00;21.30;95.60
24402;DHT22;12539;48.808;11.292;2022-08-19T00:34:26;21.40;95.60
24402;DHT22;12539;48.808;11.292;2022-08-19T00:36:56;21.40;95.60
24402;DHT22;12539;48.808;11.292;2022-08-19T00:39:22;21.40;95.60
24402;DHT22;12539;48.808;11.292;2022-08-19T00:41:49;21.50;95.60
24402;DHT22;12539;48.808;11.292;2022-08-19T00:44:24;21.50;95.60
24402;DHT22;12539;48.808;11.292;2022-08-19T00:46:51;21.60;95.60
24402;DHT22;12539;48.808;11.292;2022-08-19T00:51:53;21.60;95.50
24402;DHT22;12539;48.808;11.292;2022-08-19T00:54:21;21.60;95.40
24402;DHT22;12539;48.808;11.292;2022-08-19T00:56:48;21.60;95.20
24402;DHT22;12539;48.808;11.292;2022-08-19T00:59:15;21.70;95.20
24402;DHT22;12539;48.808;11.292;2022-08-19T01:01:42;21.70;95.00
24402;DHT22;12539;48.808;11.292;2022-08-19T01:04:09;21.70;94.80
24402;DHT22;12539;48.808;11.292;2022-08-19T01:06:39;21.70;94.70
24402;DHT22;12539;48.808;11.292;2022-08-19T01:09:09;21.80;94.70
24402;DHT22;12539;48.808;11.292;2022-08-19T01:11:39;21.80;94.60
24402;DHT22;12539;48.808;11.292;2022-08-19T01:14:07;21.80;94.70
24402;DHT22;12539;48.808;11.292;2022-08-19T01:16:34;21.80;94.70
24402;DHT22;12539;48.808;11.292;2022-08-19T01:19:02;21.80;94.60
24402;DHT22;12539;48.808;11.292;2022-08-19T01:21:42;21.80;94.60
24402;DHT22;12539;48.808;11.292;2022-08-19T01:24:09;21.90;94.50
24402;DHT22;12539;48.808;11.292;2022-08-19T01:26:40;21.90;94.50
24402;DHT22;12539;48.808;11.292;2022-08-19T01:29:07;21.80;94.50
24402;DHT22;12539;48.808;11.292;2022-08-19T01:31:33;21.90;94.50
24402;DHT22;12539;48.808;11.292;2022-08-19T01:34:00;21.90;94.40
24402;DHT22;12539;48.808;11.292;2022-08-19T01:36:42;21.90;94.40
24402;DHT22;12539;48.808;11.292;2022-08-19T01:39:14;21.90;94.30
24402;DHT22;12539;48.808;11.292;2022-08-19T01:41:40;21.90;94.20
24402;DHT22;12539;48.808;11.292;2022-08-19T01:44:08;21.90;94.10
24402;DHT22;12539;48.808;11.292;2022-08-19T01:46:34;21.90;94.00
24402;DHT22;12539;48.808;11.292;2022-08-19T01:49:01;22.00;94.00
24402;DHT22;12539;48.808;11.292;2022-08-19T01:51:27;22.00;93.90
24402;DHT22;12539;48.808;11.292;2022-08-19T01:53:53;22.00;93.90
24402;DHT22;12539;48.808;11.292;2022-08-19T01:56:19;22.00;93.90
24402;DHT22;12539;48.808;11.292;2022-08-19T01:58:51;22.00;93.90
24402;DHT22;12539;48.808;11.292;2022-08-19T02:01:19;22.00;93.70
24402;DHT22;12539;48.808;11.292;2022-08-19T02:03:45;22.00;93.60
24402;DHT22;12539;48.808;11.292;2022-08-19T02:06:11;22.00;93.70
24402;DHT22;12539;48.808;11.292;2022-08-19T02:08:38;22.00;93.60
24402;DHT22;12539;48.808;11.292;2022-08-19T02:11:04;22.00;93.50
24402;DHT22;12539;48.808;11.292;2022-08-19T02:13:31;22.00;93.60
24402;DHT22;12539;48.808;11.292;2022-08-19T02:15:57;22.00;93.50
24402;DHT22;12539;48.808;11.292;2022-08-19T02:18:23;22.00;93.60
24402;DHT22;12539;48.808;11.292;2022-08-19T02:20:49;22.00;93.60
24402;DHT22;12539;48.808;11.292;2022-08-19T02:23:16;22.00;93.60
24402;DHT22;12539;48.808;11.292;2022-08-19T02:25:45;22.00;93.70
24402;DHT22;12539;48.808;11.292;2022-08-19T02:28:11;22.00;93.70
24402;DHT22;12539;48.808;11.292;2022-08-19T02:30:38;22.00;93.70
24402;DHT22;12539;48.808;11.292;2022-08-19T02:33:05;22.00;93.60
24402;DHT22;12539;48.808;11.292;2022-08-19T02:35:31;22.00;93.50
24402;DHT22;12539;48.808;11.292;2022-08-19T02:37:56;22.00;93.50
24402;DHT22;12539;48.808;11.292;2022-08-19T02:40:41;22.00;93.60
24402;DHT22;12539;48.808;11.292;2022-08-19T02:43:14;22.00;93.60
24402;DHT22;12539;48.808;11.292;2022-08-19T02:45:41;22.00;93.60
24402;DHT22;12539;48.808;11.292;2022-08-19T02:48:06;22.00;93.60
24402;DHT22;12539;48.808;11.292;2022-08-19T02:50:33;21.90;93.70
24402;DHT22;12539;48.808;11.292;2022-08-19T02:52:58;21.90;93.60
24402;DHT22;12539;48.808;11.292;2022-08-19T02:55:24;21.90;93.60
24402;DHT22;12539;48.808;11.292;2022-08-19T02:57:50;21.90;93.50
24402;DHT22;12539;48.808;11.292;2022-08-19T03:00:16;21.90;93.50
24402;DHT22;12539;48.808;11.292;2022-08-19T03:02:41;21.90;93.50
24402;DHT22;12539;48.808;11.292;2022-08-19T03:05:08;21.90;93.50
24402;DHT22;12539;48.808;11.292;2022-08-19T03:07:35;21.90;93.50
24402;DHT22;12539;48.808;11.292;2022-08-19T03:10:02;21.90;93.50
24402;DHT22;12539;48.808;11.292;2022-08-19T03:12:28;21.90;93.40
24402;DHT22;12539;48.808;11.292;2022-08-19T03:14:53;21.90;93.40
24402;DHT22;12539;48.808;11.292;2022-08-19T03:17:20;21.90;93.30
24402;DHT22;12539;48.808;11.292;2022-08-19T03:19:45;21.90;93.20
24402;DHT22;12539;48.808;11.292;2022-08-19T03:22:11;21.90;93.10
24402;DHT22;12539;48.808;11.292;2022-08-19T03:24:38;22.00;93.10
24402;DHT22;12539;48.808;11.292;2022-08-19T03:27:04;22.00;93.10
24402;DHT22;12539;48.808;11.292;2022-08-19T03:29:30;22.00;93.10
24402;DHT22;12539;48.808;11.292;2022-08-19T03:32:02;22.00;93.00
24402;DHT22;12539;48.808;11.292;2022-08-19T03:34:31;22.00;93.00
24402;DHT22;12539;48.808;11.292;2022-08-19T03:36:59;22.00;92.90
24402;DHT22;12539;48.808;11.292;2022-08-19T03:39:26;22.00;92.80
24402;DHT22;12539;48.808;11.292;2022-08-19T03:41:53;22.00;92.80
24402;DHT22;12539;48.808;11.292;2022-08-19T03:44:22;22.00;92.70
24402;DHT22;12539;48.808;11.292;2022-08-19T03:46:51;22.00;92.70
24402;DHT22;12539;48.808;11.292;2022-08-19T03:49:19;22.00;92.70
24402;DHT22;12539;48.808;11.292;2022-08-19T03:51:46;22.00;92.70
24402;DHT22;12539;48.808;11.292;2022-08-19T03:54:15;22.00;92.80
24402;DHT22;12539;48.808;11.292;2022-08-19T03:56:43;22.00;92.80
24402;DHT22;12539;48.808;11.292;2022-08-19T03:59:11;22.00;92.80
24402;DHT22;12539;48.808;11.292;2022-08-19T04:01:38;22.00;92.80
24402;DHT22;12539;48.808;11.292;2022-08-19T04:04:05;22.00;92.80
24402;DHT22;12539;48.808;11.292;2022-08-19T04:06:34;22.00;92.90
24402;DHT22;12539;48.808;11.292;2022-08-19T04:09:04;22.00;92.80
24402;DHT22;12539;48.808;11.292;2022-08-19T04:11:43;21.90;92.80
24402;DHT22;12539;48.808;11.292;2022-08-19T04:14:15;22.00;92.80
24402;DHT22;12539;48.808;11.292;2022-08-19T04:16:42;22.00;92.80
24402;DHT22;12539;48.808;11.292;2022-08-19T04:19:10;22.00;92.70
24402;DHT22;12539;48.808;11.292;2022-08-19T04:21:36;22.00;92.70
24402;DHT22;12539;48.808;11.292;2022-08-19T04:24:02;22.00;92.60
24402;DHT22;12539;48.808;11.292;2022-08-19T04:26:32;22.00;92.50
24402;DHT22;12539;48.808;11.292;2022-08-19T04:28:59;22.10;92.50
24402;DHT22;12539;48.808;11.292;2022-08-19T04:31:29;22.10;92.60
24402;DHT22;12539;48.808;11.292;2022-08-19T04:33:59;22.10;92.60
24402;DHT22;12539;48.808;11.292;2022-08-19T04:36:31;22.10;92.50
24402;DHT22;12539;48.808;11.292;2022-08-19T04:39:00;22.10;92.50
24402;DHT22;12539;48.808;11.292;2022-08-19T04:41:26;22.20;92.60
24402;DHT22;12539;48.808;11.292;2022-08-19T04:44:11;22.20;92.60
24402;DHT22;12539;48.808;11.292;2022-08-19T04:46:38;22.20;92.70
24402;DHT22;12539;48.808;11.292;2022-08-19T04:49:06;22.20;92.60
24402;DHT22;12539;48.808;11.292;2022-08-19T04:51:33;22.20;92.60
24402;DHT22;12539;48.808;11.292;2022-08-19T04:54:01;22.20;92.60
24402;DHT22;12539;48.808;11.292;2022-08-19T04:56:27;22.30;92.70
24402;DHT22;12539;48.808;11.292;2022-08-19T04:58:54;22.20;92.70
24402;DHT22;12539;48.808;11.292;2022-08-19T05:01:23;22.30;92.80
24402;DHT22;12539;48.808;11.292;2022-08-19T05:03:49;22.30;92.90
24402;DHT22;12539;48.808;11.292;2022-08-19T05:06:17;22.30;93.00
24402;DHT22;12539;48.808;11.292;2022-08-19T05:08:44;22.30;93.00
24402;DHT22;12539;48.808;11.292;2022-08-19T05:11:12;22.30;93.10
24402;DHT22;12539;48.808;11.292;2022-08-19T05:13:38;22.30;93.30
24402;DHT22;12539;48.808;11.292;2022-08-19T05:16:04;22.30;93.60
24402;DHT22;12539;48.808;11.292;2022-08-19T05:18:30;22.40;93.70
24402;DHT22;12539;48.808;11.292;2022-08-19T05:21:17;22.40;93.70
24402;DHT22;12539;48.808;11.292;2022-08-19T05:24:02;22.40;93.70
24402;DHT22;12539;48.808;11.292;2022-08-19T05:26:27;22.40;93.80
24402;DHT22;12539;48.808;11.292;2022-08-19T05:28:54;22.40;93.90
24402;DHT22;12539;48.808;11.292;2022-08-19T05:31:20;22.40;93.90
24402;DHT22;12539;48.808;11.292;2022-08-19T05:33:46;22.40;94.00
24402;DHT22;12539;48.808;11.292;2022-08-19T05:36:12;22.40;94.10
24402;DHT22;12539;48.808;11.292;2022-08-19T05:38:38;22.50;94.10
24402;DHT22;12539;48.808;11.292;2022-08-19T05:41:12;22.50;94.20
24402;DHT22;12539;48.808;11.292;2022-08-19T05:43:38;22.60;94.60
24402;DHT22;12539;48.808;11.292;2022-08-19T05:46:05;22.60;94.20
24402;DHT22;12539;48.808;11.292;2022-08-19T05:48:35;22.60;94.10
24402;DHT22;12539;48.808;11.292;2022-08-19T05:51:05;22.70;93.90
24402;DHT22;12539;48.808;11.292;2022-08-19T05:53:32;22.70;93.80
24402;DHT22;12539;48.808;11.292;2022-08-19T05:56:07;22.80;93.70
24402;DHT22;12539;48.808;11.292;2022-08-19T05:58:34;22.80;93.50
24402;DHT22;12539;48.808;11.292;2022-08-19T06:00:59;22.80;93.40
24402;DHT22;12539;48.808;11.292;2022-08-19T06:03:33;22.80;93.30
24402;DHT22;12539;48.808;11.292;2022-08-19T06:06:00;22.80;93.30
24402;DHT22;12539;48.808;11.292;2022-08-19T06:08:26;22.80;93.30
24402;DHT22;12539;48.808;11.292;2022-08-19T06:10:52;22.80;93.30
24402;DHT22;12539;48.808;11.292;2022-08-19T06:13:18;22.80;93.20
24402;DHT22;12539;48.808;11.292;2022-08-19T06:15:45;22.80;93.20
24402;DHT22;12539;48.808;11.292;2022-08-19T06:18:13;22.80;93.10
24402;DHT22;12539;48.808;11.292;2022-08-19T06:20:39;22.80;93.10
24402;DHT22;12539;48.808;11.292;2022-08-19T06:23:05;22.80;93.10
24402;DHT22;12539;48.808;11.292;2022-08-19T06:25:31;22.80;93.10
24402;DHT22;12539;48.808;11.292;2022-08-19T06:27:57;22.80;93.00
24402;DHT22;12539;48.808;11.292;2022-08-19T06:30:23;22.80;92.90
24402;DHT22;12539;48.808;11.292;2022-08-19T06:32:48;22.80;92.80
24402;DHT22;12539;48.808;11.292;2022-08-19T06:35:14;22.80;92.80
24402;DHT22;12539;48.808;11.292;2022-08-19T06:37:40;22.80;92.70
24402;DHT22;12539;48.808;11.292;2022-08-19T06:40:07;22.80;92.70
24402;DHT22;12539;48.808;11.292;2022-08-19T06:42:34;22.80;92.70
24402;DHT22;12539;48.808;11.292;2022-08-19T06:45:01;22.80;92.70
24402;DHT22;12539;48.808;11.292;2022-08-19T06:47:29;22.80;92.70
24402;DHT22;12539;48.808;11.292;2022-08-19T06:49:57;22.80;92.70
24402;DHT22;12539;48.808;11.292;2022-08-19T06:52:28;22.80;92.60
24402;DHT22;12539;48.808;11.292;2022-08-19T06:54:54;22.80;92.60
24402;DHT22;12539;48.808;11.292;2022-08-19T06:57:20;22.90;92.50
24402;DHT22;12539;48.808;11.292;2022-08-19T06:59:47;22.90;92.40
24402;DHT22;12539;48.808;11.292;2022-08-19T07:02:12;22.90;92.30
24402;DHT22;12539;48.808;11.292;2022-08-19T07:04:38;22.90;92.20
24402;DHT22;12539;48.808;11.292;2022-08-19T07:07:08;23.00;92.10
24402;DHT22;12539;48.808;11.292;2022-08-19T07:09:36;23.00;92.10
24402;DHT22;12539;48.808;11.292;2022-08-19T07:12:05;23.00;92.10
24402;DHT22;12539;48.808;11.292;2022-08-19T07:14:32;23.00;92.00
24402;DHT22;12539;48.808;11.292;2022-08-19T07:17:02;22.90;91.90
24402;DHT22;12539;48.808;11.292;2022-08-19T07:19:29;22.90;92.00
24402;DHT22;12539;48.808;11.292;2022-08-19T07:21:55;22.80;92.10
24402;DHT22;12539;48.808;11.292;2022-08-19T07:24:23;22.80;92.10
24402;DHT22;12539;48.808;11.292;2022-08-19T07:26:50;22.80;92.10
24402;DHT22;12539;48.808;11.292;2022-08-19T07:29:17;22.80;92.20
24402;DHT22;12539;48.808;11.292;2022-08-19T07:31:43;22.80;92.10
24402;DHT22;12539;48.808;11.292;2022-08-19T07:34:10;22.70;92.20
24402;DHT22;12539;48.808;11.292;2022-08-19T07:36:39;22.70;92.20
24402;DHT22;12539;48.808;11.292;2022-08-19T07:39:19;22.70;92.30
24402;DHT22;12539;48.808;11.292;2022-08-19T07:41:46;22.80;92.60
24402;DHT22;12539;48.808;11.292;2022-08-19T07:44:12;22.70;92.30
24402;DHT22;12539;48.808;11.292;2022-08-19T07:46:41;22.80;92.40
24402;DHT22;12539;48.808;11.292;2022-08-19T07:49:11;22.80;92.30
24402;DHT22;12539;48.808;11.292;2022-08-19T07:51:55;22.90;92.20
24402;DHT22;12539;48.808;11.292;2022-08-19T07:54:22;22.90;92.10
24402;DHT22;12539;48.808;11.292;2022-08-19T07:56:48;22.90;92.10
24402;DHT22;12539;48.808;11.292;2022-08-19T07:59:17;22.90;92.00
24402;DHT22;12539;48.808;11.292;2022-08-19T08:01:44;22.90;91.90
24402;DHT22;12539;48.808;11.292;2022-08-19T08:04:10;22.90;91.90
24402;DHT22;12539;48.808;11.292;2022-08-19T08:06:54;22.90;92.00
24402;DHT22;12539;48.808;11.292;2022-08-19T08:09:42;22.90;91.90
24402;DHT22;12539;48.808;11.292;2022-08-19T08:12:11;22.80;91.90
24402;DHT22;12539;48.808;11.292;2022-08-19T08:14:44;22.90;92.10
24402;DHT22;12539;48.808;11.292;2022-08-19T08:17:11;22.90;92.10
24402;DHT22;12539;48.808;11.292;2022-08-19T08:19:38;23.00;92.10
24402;DHT22;12539;48.808;11.292;2022-08-19T08:22:07;23.20;92.00
24402;DHT22;12539;48.808;11.292;2022-08-19T08:24:33;23.30;91.80
24402;DHT22;12539;48.808;11.292;2022-08-19T08:27:01;23.50;91.60
24402;DHT22;12539;48.808;11.292;2022-08-19T08:29:30;23.60;91.20
24402;DHT22;12539;48.808;11.292;2022-08-19T08:31:56;23.70;90.90
24402;DHT22;12539;48.808;11.292;2022-08-19T08:34:22;23.80;90.50
24402;DHT22;12539;48.808;11.292;2022-08-19T08:36:48;23.70;90.20
24402;DHT22;12539;48.808;11.292;2022-08-19T08:39:18;23.60;90.40
24402;DHT22;12539;48.808;11.292;2022-08-19T08:41:52;23.50;90.50
24402;DHT22;12539;48.808;11.292;2022-08-19T08:47:13;23.40;90.80
24402;DHT22;12539;48.808;11.292;2022-08-19T08:50:02;23.40;90.90
24402;DHT22;12539;48.808;11.292;2022-08-19T08:52:31;23.40;90.90
24402;DHT22;12539;48.808;11.292;2022-08-19T08:55:04;23.40;91.00
24402;DHT22;12539;48.808;11.292;2022-08-19T08:57:35;23.40;90.90
24402;DHT22;12539;48.808;11.292;2022-08-19T09:00:07;23.50;90.70
24402;DHT22;12539;48.808;11.292;2022-08-19T09:02:33;23.50;90.70
24402;DHT22;12539;48.808;11.292;2022-08-19T09:04:59;23.50;90.70
24402;DHT22;12539;48.808;11.292;2022-08-19T09:07:57;23.50;90.70
24402;DHT22;12539;48.808;11.292;2022-08-19T09:16:13;23.60;90.50
24402;DHT22;12539;48.808;11.292;2022-08-19T09:18:45;23.60;90.50
24402;DHT22;12539;48.808;11.292;2022-08-19T09:21:14;23.60;90.40
24402;DHT22;12539;48.808;11.292;2022-08-19T09:23:40;23.60;90.40
24402;DHT22;12539;48.808;11.292;2022-08-19T09:26:11;23.60;90.50
24402;DHT22;12539;48.808;11.292;2022-08-19T09:28:40;23.50;90.90
24402;DHT22;12539;48.808;11.292;2022-08-19T09:31:15;23.30;91.20
24402;DHT22;12539;48.808;11.292;2022-08-19T09:33:41;23.20;91.60
24402;DHT22;12539;48.808;11.292;2022-08-19T09:36:12;23.10;91.90
24402;DHT22;12539;48.808;11.292;2022-08-19T09:38:39;23.00;92.10
24402;DHT22;12539;48.808;11.292;2022-08-19T09:41:12;22.90;92.30
24402;DHT22;12539;48.808;11.292;2022-08-19T09:43:40;22.80;92.50
24402;DHT22;12539;48.808;11.292;2022-08-19T09:46:06;22.80;92.70
24402;DHT22;12539;48.808;11.292;2022-08-19T09:48:33;22.80;92.60
24402;DHT22;12539;48.808;11.292;2022-08-19T09:51:06;22.90;92.50
24402;DHT22;12539;48.808;11.292;2022-08-19T09:53:34;22.90;92.50
24402;DHT22;12539;48.808;11.292;2022-08-19T09:56:00;22.90;92.40
24402;DHT22;12539;48.808;11.292;2022-08-19T09:58:26;22.90;92.30
24402;DHT22;12539;48.808;11.292;2022-08-19T10:00:57;22.90;92.20
24402;DHT22;12539;48.808;11.292;2022-08-19T10:03:24;23.00;92.10
24402;DHT22;12539;48.808;11.292;2022-08-19T10:05:50;23.00;92.10
24402;DHT22;12539;48.808;11.292;2022-08-19T10:08:24;23.10;92.10
24402;DHT22;12539;48.808;11.292;2022-08-19T10:10:52;23.10;91.90
24402;DHT22;12539;48.808;11.292;2022-08-19T10:13:22;23.20;91.80
24402;DHT22;12539;48.808;11.292;2022-08-19T10:15:53;23.20;91.60
24402;DHT22;12539;48.808;11.292;2022-08-19T10:18:20;23.30;91.50
24402;DHT22;12539;48.808;11.292;2022-08-19T10:20:47;23.30;91.30
24402;DHT22;12539;48.808;11.292;2022-08-19T10:23:14;23.40;91.30
24402;DHT22;12539;48.808;11.292;2022-08-19T10:25:41;23.40;91.10
24402;DHT22;12539;48.808;11.292;2022-08-19T10:28:07;23.50;91.10
24402;DHT22;12539;48.808;11.292;2022-08-19T10:30:35;23.60;91.00
24402;DHT22;12539;48.808;11.292;2022-08-19T10:33:01;23.70;90.80
24402;DHT22;12539;48.808;11.292;2022-08-19T10:35:26;23.70;90.50
24402;DHT22;12539;48.808;11.292;2022-08-19T10:37:55;23.70;90.30
24402;DHT22;12539;48.808;11.292;2022-08-19T10:40:25;23.70;90.20
24402;DHT22;12539;48.808;11.292;2022-08-19T10:42:52;23.70;90.20
24402;DHT22;12539;48.808;11.292;2022-08-19T10:45:18;23.60;90.20
24402;DHT22;12539;48.808;11.292;2022-08-19T10:47:43;23.60;90.20
24402;DHT22;12539;48.808;11.292;2022-08-19T10:50:09;23.50;90.30
24402;DHT22;12539;48.808;11.292;2022-08-19T10:52:54;23.40;90.40
24402;DHT22;12539;48.808;11.292;2022-08-19T10:55:22;23.20;91.00
24402;DHT22;12539;48.808;11.292;2022-08-19T10:58:15;23.10;91.50
24402;DHT22;12539;48.808;11.292;2022-08-19T11:00:41;22.90;92.20
24402;DHT22;12539;48.808;11.292;2022-08-19T11:03:08;22.70;92.60
24402;DHT22;12539;48.808;11.292;2022-08-19T11:05:34;22.60;93.50
24402;DHT22;12539;48.808;11.292;2022-08-19T11:08:00;22.40;94.30
24402;DHT22;12539;48.808;11.292;2022-08-19T11:10:26;22.20;95.40
24402;DHT22;12539;48.808;11.292;2022-08-19T11:12:52;22.00;96.90
24402;DHT22;12539;48.808;11.292;2022-08-19T11:15:20;21.70;98.20
24402;DHT22;12539;48.808;11.292;2022-08-19T11:17:46;21.50;99.20
24402;DHT22;12539;48.808;11.292;2022-08-19T11:20:12;21.30;99.90
24402;DHT22;12539;48.808;11.292;2022-08-19T11:22:39;21.20;99.90
24402;DHT22;12539;48.808;11.292;2022-08-19T11:25:06;21.00;99.90
24402;DHT22;12539;48.808;11.292;2022-08-19T11:27:32;20.90;99.90
24402;DHT22;12539;48.808;11.292;2022-08-19T11:29:59;20.80;99.90
24402;DHT22;12539;48.808;11.292;2022-08-19T11:32:25;20.70;99.90
24402;DHT22;12539;48.808;11.292;2022-08-19T11:34:51;20.70;99.90
24402;DHT22;12539;48.808;11.292;2022-08-19T11:37:17;20.60;99.90
24402;DHT22;12539;48.808;11.292;2022-08-19T11:39:43;20.50;99.90
24402;DHT22;12539;48.808;11.292;2022-08-19T11:42:09;20.50;99.90
24402;DHT22;12539;48.808;11.292;2022-08-19T11:44:53;20.50;99.90
24402;DHT22;12539;48.808;11.292;2022-08-19T11:47:19;20.50;99.90
24402;DHT22;12539;48.808;11.292;2022-08-19T11:49:46;20.30;99.90
24402;DHT22;12539;48.808;11.292;2022-08-19T11:52:16;20.30;99.90
24402;DHT22;12539;48.808;11.292;2022-08-19T11:54:42;20.30;99.90
24402;DHT22;12539;48.808;11.292;2022-08-19T11:57:07;20.30;99.90
24402;DHT22;12539;48.808;11.292;2022-08-19T11:59:33;20.30;99.90
24402;DHT22;12539;48.808;11.292;2022-08-19T12:01:59;20.30;99.90
24402;DHT22;12539;48.808;11.292;2022-08-19T12:04:25;20.30;99.90
24402;DHT22;12539;48.808;11.292;2022-08-19T12:06:50;20.30;99.90
24402;DHT22;12539;48.808;11.292;2022-08-19T12:09:16;20.20;99.90
24402;DHT22;12539;48.808;11.292;2022-08-19T12:11:43;20.20;99.90
24402;DHT22;12539;48.808;11.292;2022-08-19T12:14:12;20.20;99.90
24402;DHT22;12539;48.808;11.292;2022-08-19T12:16:40;20.20;99.90
24402;DHT22;12539;48.808;11.292;2022-08-19T12:19:06;20.20;99.90
24402;DHT22;12539;48.808;11.292;2022-08-19T12:21:34;20.20;99.90
24402;DHT22;12539;48.808;11.292;2022-08-19T12:24:01;20.20;99.90
24402;DHT22;12539;48.808;11.292;2022-08-19T12:26:29;20.30;99.90
24402;DHT22;12539;48.808;11.292;2022-08-19T12:28:57;20.20;99.90
24402;DHT22;12539;48.808;11.292;2022-08-19T12:31:25;20.20;99.90
24402;DHT22;12539;48.808;11.292;2022-08-19T12:33:51;20.20;99.90
24402;DHT22;12539;48.808;11.292;2022-08-19T12:36:17;20.30;99.90
24402;DHT22;12539;48.808;11.292;2022-08-19T12:38:43;20.30;99.90
24402;DHT22;12539;48.808;11.292;2022-08-19T12:41:12;20.40;99.90
24402;DHT22;12539;48.808;11.292;2022-08-19T12:43:38;20.40;99.90
24402;DHT22;12539;48.808;11.292;2022-08-19T12:46:05;20.40;99.90
24402;DHT22;12539;48.808;11.292;2022-08-19T12:48:32;20.50;99.90
24402;DHT22;12539;48.808;11.292;2022-08-19T12:50:58;20.50;99.90
24402;DHT22;12539;48.808;11.292;2022-08-19T12:53:24;20.50;99.90
24402;DHT22;12539;48.808;11.292;2022-08-19T12:55:57;20.50;99.90
24402;DHT22;12539;48.808;11.292;2022-08-19T12:58:23;20.60;99.90
24402;DHT22;12539;48.808;11.292;2022-08-19T13:00:49;20.50;99.90
24402;DHT22;12539;48.808;11.292;2022-08-19T13:03:15;20.60;99.90
24402;DHT22;12539;48.808;11.292;2022-08-19T13:05:41;20.60;99.90
24402;DHT22;12539;48.808;11.292;2022-08-19T13:08:07;20.60;99.90
24402;DHT22;12539;48.808;11.292;2022-08-19T13:10:35;20.60;99.90
24402;DHT22;12539;48.808;11.292;2022-08-19T13:13:06;20.60;99.90
24402;DHT22;12539;48.808;11.292;2022-08-19T13:15:38;20.60;99.90
24402;DHT22;12539;48.808;11.292;2022-08-19T13:18:06;20.60;99.90
24402;DHT22;12539;48.808;11.292;2022-08-19T13:20:35;20.60;99.90
24402;DHT22;12539;48.808;11.292;2022-08-19T13:23:01;20.60;99.90
24402;DHT22;12539;48.808;11.292;2022-08-19T13:25:27;20.60;99.90
24402;DHT22;12539;48.808;11.292;2022-08-19T13:27:52;20.60;99.90
24402;DHT22;12539;48.808;11.292;2022-08-19T13:30:21;20.60;99.90
24402;DHT22;12539;48.808;11.292;2022-08-19T13:33:06;20.60;99.90
24402;DHT22;12539;48.808;11.292;2022-08-19T13:35:50;20.50;99.90
24402;DHT22;12539;48.808;11.292;2022-08-19T13:38:21;20.50;99.90
24402;DHT22;12539;48.808;11.292;2022-08-19T13:40:48;20.50;99.90
24402;DHT22;12539;48.808;11.292;2022-08-19T13:43:19;20.50;99.90
24402;DHT22;12539;48.808;11.292;2022-08-19T13:48:35;20.40;99.90
24402;DHT22;12539;48.808;11.292;2022-08-19T13:51:01;20.30;99.90
24402;DHT22;12539;48.808;11.292;2022-08-19T13:53:30;20.30;99.90
24402;DHT22;12539;48.808;11.292;2022-08-19T13:55:56;20.30;99.90
24402;DHT22;12539;48.808;11.292;2022-08-19T13:58:21;20.30;99.90
24402;DHT22;12539;48.808;11.292;2022-08-19T14:00:48;20.40;99.90
24402;DHT22;12539;48.808;11.292;2022-08-19T14:03:14;20.40;99.90
24402;DHT22;12539;48.808;11.292;2022-08-19T14:05:40;20.40;99.90
24402;DHT22;12539;48.808;11.292;2022-08-19T14:08:06;20.40;99.90
24402;DHT22;12539;48.808;11.292;2022-08-19T14:10:32;20.50;99.90
24402;DHT22;12539;48.808;11.292;2022-08-19T14:13:00;20.40;99.90
24402;DHT22;12539;48.808;11.292;2022-08-19T14:15:28;20.40;99.90
24402;DHT22;12539;48.808;11.292;2022-08-19T14:17:54;20.50;99.90
